Main page
METAR-TAF:

METAR-TAF

Airports :

Beaumont Municipal Airport

Beaumont, Texas, United States

latitude: 30-04-13N, longitude: 094-12-54W, elevation: 33 ft

Current weather observation

The report was made 25 minutes ago, at 20:55 UTC
Wind 13 mph from the South with gusts up to 17 mph
Temperature 75°F
Humidity 89%
Pressure 29.89 in. Hg
Visibility: 10 miles
Overcast at a height of 1100 ft

METAR: KBMT 172055Z AUTO 19011G15KT 10SM OVC011 24/22 A2989 RMK AO2 T02410217

Time: 14:20 (21:20 UTC)


TAF: missing

Weather observations and forecasts of more than 4000 airports (METAR and TAF reports).

The available stations are represented by yellow and red dots on the map.

Hover mouse over dot to see the name of the station.

Then click to see weather observations and forecasts.

To change the map : click on the green buttons with a black cross to zoom in, on the green button with a dash to zoom out, or on the green arrows for adjacent maps.


METAR-TAF: